Zumarraga, Spain
Current Conditions -  °F | °C
As of 7:30 PM on Sunday 23 Nov 2014 (Local Time) from LEVT Reporting Station
Scattered Clouds Scattered Clouds  
Wind Chill: 59°   Ceiling: Unl
Heat Index: 59°   Visibility: 6mi
Dew Point: 52°   Wind: 9mph
Humidity: 77%   Direction: 80°E
Pressure: 29.97"   Gusts: NA
Location:  43.09°N, 2.31°W
Report Text: LEVT 231830Z 08008KT 9999 SCT030 15/11 Q1015
Loading
Personal Weather Stations






























Interactive Weather Map New forecast layout! Learn more

10-Day Weather Forecast

Advertisements
Track Severe Weather on mobile